Weather History for KCGS - April, 2013

Change the Weather History Date:

Tuesday, April 30, 2013

  Actual Average Record
Temperature  
Mean Temperature 56 °F -  
Max Temperature 60 °F 70 °F 91 °F (1974)
Min Temperature 53 °F 48 °F 33 °F (1961)
Degree Days  
Heating Degree Days 8    
Growing Degree Days 6 (Base 50)    
Moisture  
Dew Point 58 °F    
Average Humidity 98    
Maximum Humidity 100    
Minimum Humidity 88    
Precipitation  
Precipitation 0.00 in - - ()
Sea Level Pressure  
Sea Level Pressure 30.20 in    
Wind  
Wind Speed 2 mph (ENE)    
Max Wind Speed 8 mph    
Max Gust Speed -    
Visibility 5 miles    
Events      
Averages and records for this station are not official NWS values.
T = Trace of Precipitation, MM = Missing Value Source: NWS Daily Summary

Daily Weather History Graph

Daily Weather History Graph

Search for Another Location

Airport or City:

Trip Planner

Search our weather history database for the weather conditions in past years. The results will help you decide how hot, cold, wet, or windy it might be!

Date:

Astronomy

Apr. 30, 2013 Rise Set
Actual Time 6:10 AM EDT 7:59 PM EDT
Civil Twilight 5:41 AM EDT 8:28 PM EDT
Nautical Twilight 5:07 AM EDT 9:03 PM EDT
Astronomical Twilight 4:29 AM EDT 9:40 PM EDT
Moon 12:20 AM EDT (4/30) 10:37 AM EDT (4/30)
Length of Visible Light 14h 46m
Length of Day
13h 49m
Waning Gibbous, 70% of the Moon is Illuminated
Apr 30
Waning Gibbous
May 2
Last Quarter
May 9
New
May 18
First Quarter
May 25
Full

Hourly Weather History & Observations

Time (EDT) Temp. Dew Point Humidity Pressure Visibility Wind Dir Wind Speed Gust Speed Precip Events Conditions
12:15 AM 56.8 °F 56.8 °F 100% 30.11 in 10.0 mi Calm Calm - N/A   Overcast
12:35 AM 56.7 °F 56.7 °F 100% 30.11 in 10.0 mi ENE 3.5 mph - N/A   Overcast
12:55 AM 56.7 °F 56.7 °F 100% 30.11 in 7.0 mi Calm Calm - N/A   Overcast
1:15 AM 56.7 °F 56.7 °F 100% 30.11 in 5.0 mi Calm Calm - N/A   Overcast
1:35 AM 56.7 °F 56.7 °F 100% 30.11 in 2.5 mi Calm Calm - N/A   Overcast
1:55 AM 56.7 °F 56.7 °F 100% 30.11 in 2.5 mi Calm Calm - N/A   Overcast
2:10 AM 56.8 °F 56.8 °F 100% 30.10 in 3.0 mi Calm Calm - N/A   Overcast
2:35 AM 56.8 °F 56.8 °F 100% 30.10 in 2.5 mi Calm Calm - N/A   Overcast
2:55 AM 56.8 °F 56.8 °F 100% 30.10 in 3.0 mi Calm Calm - N/A   Overcast
3:15 AM 57.2 °F 57.2 °F 100% 30.10 in 4.0 mi NNE 3.5 mph - N/A   Overcast
3:35 AM 57.0 °F 57.0 °F 100% 30.10 in 4.0 mi Calm Calm - N/A   Overcast
3:55 AM 57.0 °F 57.0 °F 100% 30.10 in 5.0 mi NNE 3.5 mph - N/A   Overcast
4:15 AM 57.2 °F 57.2 °F 100% 30.11 in 4.0 mi Calm Calm - N/A   Overcast
4:35 AM 57.2 °F 57.2 °F 100% 30.11 in 4.0 mi Calm Calm - N/A   Overcast
4:55 AM 57.2 °F 57.2 °F 100% 30.12 in 3.0 mi ENE 3.5 mph - N/A   Overcast
5:15 AM 57.2 °F 57.2 °F 100% 30.12 in 4.0 mi ENE 3.5 mph - N/A   Overcast
5:35 AM 57.2 °F 57.2 °F 100% 30.12 in 7.0 mi Calm Calm - N/A   Overcast
5:55 AM 57.2 °F 57.2 °F 100% 30.13 in 5.0 mi Calm Calm - N/A   Overcast
6:15 AM 57.2 °F 57.2 °F 100% 30.14 in 5.0 mi Calm Calm - N/A   Overcast
6:35 AM 57.4 °F 57.4 °F 100% 30.15 in 2.5 mi Calm Calm - N/A   Overcast
6:55 AM 57.4 °F 57.4 °F 100% 30.16 in 2.5 mi Calm Calm - N/A   Overcast
7:15 AM 57.4 °F 57.4 °F 100% 30.16 in 1.8 mi Calm Calm - N/A   Overcast
7:35 AM 57.4 °F 57.4 °F 100% 30.17 in 1.8 mi NNE 3.5 mph - N/A   Overcast
7:55 AM 57.6 °F 57.6 °F 100% 30.17 in 2.0 mi ENE 4.6 mph - N/A   Overcast
8:15 AM 57.9 °F 57.9 °F 100% 30.18 in 2.5 mi Calm Calm - N/A   Overcast
8:35 AM 58.1 °F 58.1 °F 100% 30.19 in 2.0 mi NE 4.6 mph - N/A   Overcast
8:55 AM 58.1 °F 58.1 °F 100% 30.19 in 2.5 mi Calm Calm - N/A   Overcast
9:15 AM 58.3 °F 58.3 °F 100% 30.20 in 3.0 mi Calm Calm - N/A   Overcast
9:35 AM 58.3 °F 58.3 °F 100% 30.20 in 3.0 mi Calm Calm - N/A   Overcast
9:55 AM 57.7 °F 57.7 °F 100% 30.20 in 4.0 mi ENE 5.8 mph - N/A   Overcast
10:15 AM 58.1 °F 58.1 °F 100% 30.20 in 3.0 mi East 8.1 mph - N/A   Overcast
10:35 AM 58.3 °F 58.3 °F 100% 30.21 in 4.0 mi East 4.6 mph - N/A   Overcast
10:55 AM 58.5 °F 58.5 °F 100% 30.21 in 3.0 mi ENE 6.9 mph - N/A   Overcast
11:15 AM 58.6 °F 58.6 °F 100% 30.21 in 3.0 mi East 4.6 mph - N/A   Overcast
11:35 AM 59.0 °F 59.0 °F 100% 30.21 in 3.0 mi ENE 6.9 mph - N/A   Overcast
11:55 AM 59.0 °F 59.0 °F 100% 30.21 in 2.0 mi ENE 5.8 mph - N/A   Overcast
12:15 PM 59.2 °F 59.2 °F 100% 30.21 in 2.5 mi East 4.6 mph - N/A   Overcast
12:35 PM 59.2 °F 59.2 °F 100% 30.21 in 2.5 mi ENE 4.6 mph - N/A   Overcast
12:55 PM 60.1 °F 60.1 °F 100% 30.21 in 5.0 mi East 6.9 mph - N/A   Overcast
1:15 PM 60.1 °F 59.4 °F 97% 30.21 in 7.0 mi East 5.8 mph - N/A   Overcast
1:55 PM 59.9 °F 59.2 °F 97% 30.21 in 4.0 mi ENE 4.6 mph - N/A   Overcast
2:15 PM 60.8 °F 59.4 °F 95% 30.22 in 7.0 mi ENE 6.9 mph - N/A   Overcast
3:00 PM 60.3 °F 59.7 °F 98% 30.22 in 4.0 mi ENE 4.6 mph - N/A   Overcast
3:20 PM 60.3 °F 60.3 °F 100% 30.22 in 2.5 mi ENE 5.8 mph - N/A   Overcast
3:40 PM 60.4 °F 59.9 °F 98% 30.23 in 3.0 mi ENE 4.6 mph - N/A   Overcast
4:00 PM 60.3 °F 59.9 °F 99% 30.23 in 2.5 mi ENE 4.6 mph - N/A   Overcast
4:20 PM 60.4 °F 60.3 °F 99% 30.24 in 4.0 mi NE 3.5 mph - N/A   Overcast
4:40 PM 60.3 °F 59.0 °F 96% 30.24 in 4.0 mi NE 5.8 mph - N/A   Overcast
5:00 PM 60.6 °F 58.5 °F 93% 30.24 in 10.0 mi ENE 6.9 mph - N/A   Overcast
5:20 PM 60.3 °F 59.0 °F 96% 30.24 in 5.0 mi NE 6.9 mph - N/A   Overcast
5:40 PM 60.3 °F 59.0 °F 96% 30.24 in 7.0 mi East 5.8 mph - N/A   Overcast
5:55 PM 60.1 °F 57.2 °F 90% 30.24 in 10.0 mi Calm Calm - N/A   Overcast
6:20 PM 60.4 °F 56.8 °F 88% 30.25 in 10.0 mi East 4.6 mph - N/A   Overcast
6:40 PM 60.3 °F 57.4 °F 90% 30.25 in 10.0 mi Calm Calm - N/A   Overcast
7:00 PM 60.1 °F 57.2 °F 90% 30.25 in 10.0 mi East 3.5 mph - N/A   Overcast
7:20 PM 59.9 °F 56.5 °F 88% 30.26 in 10.0 mi Calm Calm - N/A   Overcast
7:40 PM 59.4 °F 56.7 °F 91% 30.26 in 10.0 mi Calm Calm - N/A   Overcast
8:00 PM 59.2 °F 56.5 °F 91% 30.26 in 10.0 mi Calm Calm - N/A   Overcast
8:20 PM 59.2 °F 56.5 °F 91% 30.26 in 10.0 mi Calm Calm - N/A   Overcast
8:40 PM 58.3 °F 56.5 °F 94% 30.27 in 10.0 mi Calm Calm - N/A   Overcast
9:00 PM 58.3 °F 57.0 °F 96% 30.27 in 10.0 mi Calm Calm - N/A   Overcast
9:20 PM 57.7 °F 57.4 °F 99% 30.28 in 10.0 mi Calm Calm - N/A   Overcast
9:40 PM 57.6 °F 57.2 °F 99% 30.28 in 10.0 mi Calm Calm - N/A   Overcast
10:00 PM 56.5 °F 56.5 °F 100% 30.28 in 10.0 mi Calm Calm - N/A   Overcast
10:20 PM 54.7 °F 54.7 °F 100% 30.28 in 4.0 mi Calm Calm - N/A   Mostly Cloudy
10:40 PM 54.0 °F 54.0 °F 100% 30.29 in 5.0 mi Calm Calm - N/A   Mostly Cloudy
11:00 PM 53.8 °F 53.8 °F 100% 30.29 in 7.0 mi Calm Calm - N/A   Mostly Cloudy
11:20 PM 53.6 °F 53.6 °F 100% 30.29 in 5.0 mi Calm Calm - N/A   Mostly Cloudy
11:40 PM 53.2 °F 53.2 °F 100% 30.29 in 4.0 mi Calm Calm - N/A   Overcast